Time;durP1;ratioP1;P1;durP2;ratioP2;P2;SDS_P1;SDS_P2;PMS_P1;PMS_P2;Temp;Humidity;BMP_temperature;BMP_pressure;BME280_temperature;BME280_humidity;BME280_pressure;Samples;Min_cycle;Max_cycle;Signal;HPM_P1;HPM_P2
2022/08/01 00:00:13;;;;;;;7.45;4.43;;;;;;;;;;5078377;28;20559;-43
2022/08/01 00:03:00;;;;;;;7.05;3.75;;;;;;;;;;5077920;28;20520;-44
2022/08/01 00:05:27;;;;;;;12.20;3.78;;;;;;;;;;5078203;28;20200;-43
2022/08/01 00:07:54;;;;;;;8.60;3.85;;;;;;;;;;5078122;28;20273;-43
2022/08/01 00:10:21;;;;;;;8.82;3.80;;;;;;;;;;5078281;28;20207;-43
2022/08/01 00:12:48;;;;;;;6.03;4.00;;;;;;;;;;5077783;28;20584;-43
2022/08/01 00:15:16;;;;;;;7.15;4.20;;;;;;;;;;5077854;28;20196;-44
2022/08/01 00:17:43;;;;;;;13.90;3.80;;;;;;;;;;5077734;28;20705;-43
2022/08/01 00:20:12;;;;;;;10.27;3.65;;;;;;;;;;5077899;28;20235;-42
2022/08/01 00:22:39;;;;;;;6.55;3.20;;;;;;;;;;5077991;28;20206;-43
2022/08/01 00:25:07;;;;;;;9.90;2.90;;;;;;;;;;5077903;28;20285;-43
2022/08/01 00:27:34;;;;;;;7.50;2.67;;;;;;;;;;5077549;28;20260;-44
2022/08/01 00:30:04;;;;;;;5.10;2.22;;;;;;;;;;5077373;28;20213;-43
2022/08/01 00:32:41;;;;;;;4.90;2.10;;;;;;;;;;5076605;28;20214;-43
2022/08/01 00:35:09;;;;;;;3.17;2.30;;;;;;;;;;5078133;28;20213;-43
2022/08/01 00:37:36;;;;;;;4.80;1.98;;;;;;;;;;5077513;28;20203;-43
2022/08/01 00:40:03;;;;;;;2.25;1.70;;;;;;;;;;5077404;28;20219;-43
2022/08/01 00:42:30;;;;;;;7.93;2.15;;;;;;;;;;5077345;28;20260;-43
2022/08/01 00:44:57;;;;;;;3.60;2.17;;;;;;;;;;5077171;28;20638;-43
2022/08/01 00:47:24;;;;;;;5.45;2.20;;;;;;;;;;5077350;28;20214;-43
2022/08/01 00:49:51;;;;;;;10.43;2.70;;;;;;;;;;5077116;28;20225;-43
2022/08/01 00:52:18;;;;;;;7.35;2.75;;;;;;;;;;5076373;28;20204;-43
2022/08/01 00:54:45;;;;;;;6.68;2.55;;;;;;;;;;5077341;28;20203;-43
2022/08/01 00:57:12;;;;;;;6.80;3.20;;;;;;;;;;5077223;28;20199;-43
2022/08/01 00:59:40;;;;;;;5.55;3.63;;;;;;;;;;5077104;28;20289;-43
2022/08/01 01:02:08;;;;;;;11.95;3.97;;;;;;;;;;5077024;28;20239;-43
2022/08/01 01:04:42;;;;;;;9.48;4.13;;;;;;;;;;5077153;28;20187;-43
2022/08/01 01:07:24;;;;;;;7.20;4.45;;;;;;;;;;5076075;28;20203;-44
2022/08/01 01:10:05;;;;;;;9.35;5.65;;;;;;;;;;5075946;28;20195;-43
2022/08/01 01:12:38;;;;;;;12.02;5.82;;;;;;;;;;5076725;28;20203;-42
2022/08/01 01:15:18;;;;;;;11.98;6.38;;;;;;;;;;5076720;28;20658;-42
2022/08/01 01:17:52;;;;;;;14.05;6.75;;;;;;;;;;5075898;28;20207;-44
2022/08/01 01:20:21;;;;;;;12.38;7.30;;;;;;;;;;5076209;28;20206;-42
2022/08/01 01:23:07;;;;;;;13.00;7.18;;;;;;;;;;5075836;28;20223;-43
2022/08/01 01:25:37;;;;;;;13.05;7.80;;;;;;;;;;5076841;28;20274;-42
2022/08/01 01:28:07;;;;;;;17.42;7.75;;;;;;;;;;5076530;28;20203;-43
2022/08/01 01:30:34;;;;;;;23.23;8.52;;;;;;;;;;5076926;28;20207;-43
2022/08/01 01:33:03;;;;;;;12.07;8.00;;;;;;;;;;5075668;28;20282;-42
2022/08/01 01:35:34;;;;;;;13.48;7.65;;;;;;;;;;5076015;28;20277;-43
2022/08/01 01:38:09;;;;;;;13.80;8.23;;;;;;;;;;5075572;28;20203;-42
2022/08/01 01:40:36;;;;;;;19.10;8.00;;;;;;;;;;5076565;28;20227;-43
2022/08/01 01:43:04;;;;;;;17.20;8.55;;;;;;;;;;5075496;28;20290;-43
2022/08/01 01:45:31;;;;;;;17.05;9.25;;;;;;;;;;5076360;28;20244;-43
2022/08/01 01:48:00;;;;;;;18.17;9.30;;;;;;;;;;5075734;28;20332;-43
2022/08/01 01:50:28;;;;;;;16.55;8.38;;;;;;;;;;5075410;28;20215;-43
2022/08/01 01:52:56;;;;;;;12.15;7.75;;;;;;;;;;5076241;28;20200;-43
2022/08/01 01:55:24;;;;;;;14.60;8.40;;;;;;;;;;5075692;28;20210;-45
2022/08/01 01:57:51;;;;;;;12.50;7.55;;;;;;;;;;5074784;28;20649;-43
2022/08/01 02:00:18;;;;;;;12.98;7.50;;;;;;;;;;5075913;28;20231;-43
2022/08/01 02:02:46;;;;;;;15.15;7.00;;;;;;;;;;5075478;28;20260;-43
2022/08/01 02:05:13;;;;;;;13.18;6.78;;;;;;;;;;5076029;28;20288;-43
2022/08/01 02:07:41;;;;;;;11.68;6.60;;;;;;;;;;5074727;28;20660;-43
2022/08/01 02:10:09;;;;;;;7.13;6.10;;;;;;;;;;5074892;28;20207;-45
2022/08/01 02:12:38;;;;;;;13.80;7.15;;;;;;;;;;5074866;28;20284;-47
2022/08/01 02:15:06;;;;;;;15.48;7.85;;;;;;;;;;5075647;28;20203;-47
2022/08/01 02:17:37;;;;;;;15.10;8.23;;;;;;;;;;5074325;28;20218;-49
2022/08/01 02:20:05;;;;;;;20.73;9.60;;;;;;;;;;5075933;28;20234;-45
2022/08/01 02:22:42;;;;;;;14.70;9.98;;;;;;;;;;5075296;28;20214;-44
2022/08/01 02:25:13;;;;;;;17.95;10.57;;;;;;;;;;5074673;28;20199;-46
2022/08/01 02:27:44;;;;;;;18.88;12.75;;;;;;;;;;5075401;28;20199;-45
2022/08/01 02:30:13;;;;;;;20.38;12.52;;;;;;;;;;5075250;28;20207;-45
2022/08/01 02:32:49;;;;;;;18.08;11.95;;;;;;;;;;5075061;28;20199;-45
2022/08/01 02:35:30;;;;;;;16.48;11.70;;;;;;;;;;5075217;28;20191;-43
2022/08/01 02:37:58;;;;;;;18.38;11.80;;;;;;;;;;5074208;28;20199;-43
2022/08/01 02:40:27;;;;;;;16.90;11.07;;;;;;;;;;5074693;28;20284;-46
2022/08/01 02:42:55;;;;;;;20.17;10.63;;;;;;;;;;5073981;28;20703;-43
2022/08/01 02:45:25;;;;;;;17.27;11.25;;;;;;;;;;5073819;28;20217;-43
2022/08/01 02:47:59;;;;;;;15.38;10.10;;;;;;;;;;5074643;28;20692;-44
2022/08/01 02:50:28;;;;;;;16.15;10.88;;;;;;;;;;5074994;28;20199;-43
2022/08/01 02:52:56;;;;;;;14.27;9.43;;;;;;;;;;5073721;28;20593;-44
2022/08/01 02:55:24;;;;;;;13.50;9.38;;;;;;;;;;5073779;28;20210;-45
2022/08/01 02:57:52;;;;;;;12.73;8.15;;;;;;;;;;5074528;28;20634;-43
2022/08/01 03:00:28;;;;;;;13.55;7.00;;;;;;;;;;5073763;28;20237;-44
2022/08/01 03:02:55;;;;;;;15.40;6.68;;;;;;;;;;5073656;28;20211;-45
2022/08/01 03:05:24;;;;;;;9.30;5.65;;;;;;;;;;5074533;28;20648;-44
2022/08/01 03:07:52;;;;;;;8.13;5.18;;;;;;;;;;5074749;28;20204;-45
2022/08/01 03:10:21;;;;;;;9.18;6.10;;;;;;;;;;5074375;28;20634;-43
2022/08/01 03:12:49;;;;;;;8.25;5.60;;;;;;;;;;5073486;28;20199;-44
2022/08/01 03:15:17;;;;;;;6.35;4.80;;;;;;;;;;5073774;28;20541;-43
2022/08/01 03:17:45;;;;;;;7.95;4.53;;;;;;;;;;5074709;28;20191;-43
2022/08/01 03:20:14;;;;;;;7.35;4.10;;;;;;;;;;5081944;28;20563;-46
2022/08/01 03:22:43;;;;;;;5.47;3.72;;;;;;;;;;5081503;28;20257;-45
2022/08/01 03:25:12;;;;;;;4.45;3.58;;;;;;;;;;5082007;28;20625;-45
2022/08/01 03:27:40;;;;;;;5.78;3.00;;;;;;;;;;5081519;28;20186;-44
2022/08/01 03:30:08;;;;;;;7.25;3.35;;;;;;;;;;5080185;28;20203;-45
2022/08/01 03:32:35;;;;;;;6.00;3.50;;;;;;;;;;5083715;28;20202;-44
2022/08/01 03:35:02;;;;;;;8.15;3.53;;;;;;;;;;5086831;28;20195;-42
2022/08/01 03:37:42;;;;;;;5.00;2.95;;;;;;;;;;5086781;28;20267;-43
2022/08/01 03:40:40;;;;;;;5.47;3.70;;;;;;;;;;5086939;28;20274;-42
2022/08/01 03:43:18;;;;;;;8.70;3.58;;;;;;;;;;5083889;28;20188;-44
2022/08/01 03:45:49;;;;;;;8.82;4.20;;;;;;;;;;5066644;28;20199;-43
2022/08/01 03:48:18;;;;;;;11.13;5.20;;;;;;;;;;5085930;28;20509;-47
2022/08/01 03:50:50;;;;;;;8.98;4.70;;;;;;;;;;5083453;28;20214;-43
2022/08/01 03:53:23;;;;;;;8.07;4.70;;;;;;;;;;5086086;28;20227;-43
2022/08/01 03:55:51;;;;;;;6.50;4.80;;;;;;;;;;5088254;28;20191;-43
2022/08/01 03:58:18;;;;;;;4.57;4.05;;;;;;;;;;5084984;28;20539;-44
2022/08/01 04:00:46;;;;;;;3.90;3.45;;;;;;;;;;5086522;28;20226;-46
2022/08/01 04:03:13;;;;;;;7.68;4.28;;;;;;;;;;5084281;28;20202;-45
2022/08/01 04:05:42;;;;;;;4.32;3.17;;;;;;;;;;5087009;28;20265;-43
2022/08/01 04:08:09;;;;;;;6.30;3.35;;;;;;;;;;5086816;28;20274;-43
2022/08/01 04:10:37;;;;;;;3.15;2.30;;;;;;;;;;5088781;28;20199;-46
2022/08/01 04:13:04;;;;;;;8.57;2.60;;;;;;;;;;5080851;28;20222;-44
2022/08/01 04:15:31;;;;;;;4.72;2.40;;;;;;;;;;5087032;28;20599;-43
2022/08/01 04:17:58;;;;;;;3.67;2.70;;;;;;;;;;5085672;28;20290;-43
2022/08/01 04:20:25;;;;;;;4.90;2.78;;;;;;;;;;5087521;28;20214;-43
2022/08/01 04:22:52;;;;;;;4.47;2.92;;;;;;;;;;5086967;28;20226;-45
2022/08/01 04:25:26;;;;;;;8.95;3.35;;;;;;;;;;5085302;28;20672;-43
2022/08/01 04:27:54;;;;;;;4.13;2.75;;;;;;;;;;5085173;28;20637;-42
2022/08/01 04:30:27;;;;;;;5.93;3.10;;;;;;;;;;5087580;28;20226;-44
2022/08/01 04:32:55;;;;;;;6.22;3.20;;;;;;;;;;5086217;28;20191;-43
2022/08/01 04:35:24;;;;;;;4.40;3.33;;;;;;;;;;5086738;28;20199;-43
2022/08/01 04:38:14;;;;;;;7.10;3.53;;;;;;;;;;5081790;28;20195;-45
2022/08/01 04:40:41;;;;;;;6.55;2.80;;;;;;;;;;5086325;28;20225;-43
2022/08/01 04:43:08;;;;;;;5.55;2.67;;;;;;;;;;5087117;28;20641;-43
2022/08/01 04:45:36;;;;;;;3.20;2.20;;;;;;;;;;5079118;28;20203;-43
2022/08/01 04:48:06;;;;;;;5.57;2.47;;;;;;;;;;5076524;28;20195;-43
2022/08/01 04:50:34;;;;;;;4.60;2.88;;;;;;;;;;5076229;28;20203;-45
2022/08/01 04:53:02;;;;;;;7.20;2.55;;;;;;;;;;5077325;28;20211;-44
2022/08/01 04:55:31;;;;;;;4.75;2.67;;;;;;;;;;5077689;28;20214;-44
2022/08/01 04:57:58;;;;;;;4.05;2.42;;;;;;;;;;5076948;28;20286;-43
2022/08/01 05:00:26;;;;;;;3.35;1.92;;;;;;;;;;5076331;28;20230;-42
2022/08/01 05:02:53;;;;;;;3.63;2.25;;;;;;;;;;5077120;28;20215;-43
2022/08/01 05:05:21;;;;;;;6.75;2.30;;;;;;;;;;5076907;28;20203;-42
2022/08/01 05:07:48;;;;;;;5.07;2.40;;;;;;;;;;5077549;28;20203;-42
2022/08/01 05:10:15;;;;;;;3.90;2.50;;;;;;;;;;5077000;28;20215;-43
2022/08/01 05:12:41;;;;;;;4.75;2.53;;;;;;;;;;5076814;28;20199;-43
2022/08/01 05:15:09;;;;;;;3.15;2.67;;;;;;;;;;5076843;28;20210;-42
2022/08/01 05:17:44;;;;;;;4.00;2.80;;;;;;;;;;5076667;28;20320;-42
2022/08/01 05:20:11;;;;;;;5.55;3.42;;;;;;;;;;5077257;28;20226;-42
2022/08/01 05:22:39;;;;;;;5.00;3.70;;;;;;;;;;5076891;28;20204;-42
2022/08/01 05:25:06;;;;;;;6.95;3.90;;;;;;;;;;5076672;28;20199;-42
2022/08/01 05:27:39;;;;;;;3.65;3.03;;;;;;;;;;5076662;28;20214;-42
2022/08/01 05:30:07;;;;;;;5.97;3.97;;;;;;;;;;5076523;28;20203;-42
2022/08/01 05:32:34;;;;;;;4.28;3.42;;;;;;;;;;5076830;28;20564;-42
2022/08/01 05:35:01;;;;;;;4.30;3.60;;;;;;;;;;5075770;28;20207;-44
2022/08/01 05:37:28;;;;;;;5.22;3.40;;;;;;;;;;5067771;28;20207;-42
2022/08/01 05:39:55;;;;;;;7.53;3.08;;;;;;;;;;5056772;28;20208;-44
2022/08/01 05:42:22;;;;;;;5.55;3.40;;;;;;;;;;5056470;28;20204;-42
2022/08/01 05:44:50;;;;;;;3.25;2.95;;;;;;;;;;5056200;28;20273;-42
2022/08/01 05:47:18;;;;;;;2.45;2.25;;;;;;;;;;5056200;28;20211;-42
2022/08/01 05:49:45;;;;;;;2.63;2.40;;;;;;;;;;5058059;28;20196;-43
2022/08/01 05:52:12;;;;;;;2.65;2.40;;;;;;;;;;5069335;28;20231;-42
2022/08/01 05:54:40;;;;;;;3.33;2.38;;;;;;;;;;5074893;28;20223;-42
2022/08/01 05:57:07;;;;;;;2.88;2.20;;;;;;;;;;5074761;28;20235;-42
2022/08/01 05:59:34;;;;;;;2.67;2.10;;;;;;;;;;5074710;28;20235;-45
2022/08/01 06:02:01;;;;;;;2.63;1.98;;;;;;;;;;5074620;28;20320;-43
2022/08/01 06:04:28;;;;;;;2.28;1.88;;;;;;;;;;5074908;28;20237;-42
2022/08/01 06:06:55;;;;;;;9.15;2.20;;;;;;;;;;5074522;28;20232;-42
2022/08/01 06:09:22;;;;;;;3.92;2.10;;;;;;;;;;5074651;28;20701;-43
2022/08/01 06:11:49;;;;;;;3.10;2.22;;;;;;;;;;5075023;28;20242;-46
2022/08/01 06:14:16;;;;;;;5.85;2.00;;;;;;;;;;5075036;28;20223;-46
2022/08/01 06:16:43;;;;;;;7.25;2.55;;;;;;;;;;5070728;28;20280;-43
2022/08/01 06:19:10;;;;;;;7.00;2.33;;;;;;;;;;5071535;28;20230;-44
2022/08/01 06:21:37;;;;;;;3.10;2.20;;;;;;;;;;5071683;28;20300;-45
2022/08/01 06:24:04;;;;;;;4.20;2.55;;;;;;;;;;5067234;28;20239;-46
2022/08/01 06:26:31;;;;;;;6.10;2.63;;;;;;;;;;5054628;28;20622;-43
2022/08/01 06:28:58;;;;;;;3.50;2.60;;;;;;;;;;5071168;28;20322;-43
2022/08/01 06:31:25;;;;;;;3.58;2.70;;;;;;;;;;5066240;28;20254;-42
2022/08/01 06:33:59;;;;;;;5.97;2.97;;;;;;;;;;5102909;28;20512;-45
2022/08/01 06:36:26;;;;;;;3.85;2.85;;;;;;;;;;5073370;28;20599;-48
2022/08/01 06:38:52;;;;;;;4.60;3.05;;;;;;;;;;5074222;28;20670;-45
2022/08/01 06:41:20;;;;;;;7.10;3.00;;;;;;;;;;5074589;28;20234;-45
2022/08/01 06:43:46;;;;;;;5.05;2.90;;;;;;;;;;5074046;28;20215;-44
2022/08/01 06:46:13;;;;;;;4.63;2.90;;;;;;;;;;5074483;28;20225;-46
2022/08/01 06:48:42;;;;;;;4.63;2.85;;;;;;;;;;5074125;28;20241;-49
2022/08/01 06:51:09;;;;;;;4.00;3.00;;;;;;;;;;5073765;28;20301;-45
2022/08/01 06:53:37;;;;;;;6.10;3.03;;;;;;;;;;5079810;28;20222;-45
2022/08/01 06:56:05;;;;;;;7.25;3.00;;;;;;;;;;5093647;28;20226;-44
2022/08/01 06:58:34;;;;;;;3.42;3.08;;;;;;;;;;5094171;28;20645;-47
2022/08/01 07:01:05;;;;;;;6.10;3.50;;;;;;;;;;5094275;28;20333;-46
2022/08/01 07:03:34;;;;;;;10.73;3.90;;;;;;;;;;5094192;28;20222;-44
2022/08/01 07:06:22;;;;;;;8.20;3.78;;;;;;;;;;5081422;28;20233;-46
2022/08/01 07:08:49;;;;;;;6.63;4.13;;;;;;;;;;5074075;28;20223;-44
2022/08/01 07:11:16;;;;;;;7.18;4.82;;;;;;;;;;5073627;28;20571;-44
2022/08/01 07:13:45;;;;;;;9.93;4.90;;;;;;;;;;5073783;28;20255;-44
2022/08/01 07:16:13;;;;;;;5.50;4.05;;;;;;;;;;5073670;28;20723;-45
2022/08/01 07:18:41;;;;;;;6.25;4.50;;;;;;;;;;5075955;28;20219;-46
2022/08/01 07:21:08;;;;;;;5.45;4.70;;;;;;;;;;5073396;28;20243;-44
2022/08/01 07:23:56;;;;;;;8.73;4.30;;;;;;;;;;5072172;28;20579;-46
2022/08/01 07:26:23;;;;;;;4.90;4.40;;;;;;;;;;5073017;28;20219;-45
2022/08/01 07:28:49;;;;;;;5.45;4.40;;;;;;;;;;5083696;28;20222;-45
2022/08/01 07:31:17;;;;;;;6.50;4.75;;;;;;;;;;5082052;28;20223;-45
2022/08/01 07:33:44;;;;;;;6.43;4.80;;;;;;;;;;5083362;28;20310;-46
2022/08/01 07:36:18;;;;;;;8.73;4.80;;;;;;;;;;5083881;28;20244;-49
2022/08/01 07:38:45;;;;;;;8.38;4.70;;;;;;;;;;5082939;28;20231;-46
2022/08/01 07:41:13;;;;;;;8.70;4.68;;;;;;;;;;5082233;28;20238;-45
2022/08/01 07:43:40;;;;;;;9.45;4.75;;;;;;;;;;5087050;28;20734;-47
2022/08/01 07:46:19;;;;;;;5.47;4.72;;;;;;;;;;5071633;28;20242;-45
2022/08/01 07:48:46;;;;;;;12.13;5.28;;;;;;;;;;5052016;28;20250;-47
2022/08/01 07:51:13;;;;;;;7.85;5.05;;;;;;;;;;5078804;28;20226;-45
2022/08/01 07:53:40;;;;;;;6.20;4.50;;;;;;;;;;5083227;28;20223;-44
2022/08/01 07:56:07;;;;;;;8.95;4.70;;;;;;;;;;5079614;28;20223;-48
2022/08/01 07:58:34;;;;;;;4.70;4.20;;;;;;;;;;5083494;28;20214;-44
2022/08/01 08:01:01;;;;;;;6.70;4.75;;;;;;;;;;5081953;28;20570;-47
2022/08/01 08:03:28;;;;;;;6.22;4.70;;;;;;;;;;5082075;28;20269;-45
2022/08/01 08:05:55;;;;;;;9.00;5.45;;;;;;;;;;5084921;28;20223;-44
2022/08/01 08:08:27;;;;;;;5.35;4.80;;;;;;;;;;5076577;28;20215;-46
2022/08/01 08:10:54;;;;;;;10.35;5.05;;;;;;;;;;5063069;28;20569;-44
2022/08/01 08:13:21;;;;;;;6.57;5.60;;;;;;;;;;5068519;28;21131;-44
2022/08/01 08:15:49;;;;;;;7.22;5.20;;;;;;;;;;5072503;28;20227;-50
2022/08/01 08:18:16;;;;;;;8.70;4.80;;;;;;;;;;5076289;28;20219;-45
2022/08/01 08:20:43;;;;;;;8.45;5.30;;;;;;;;;;5075128;28;20737;-47
2022/08/01 08:26:12;;;;;;;7.60;4.95;;;;;;;;;;5076022;28;20243;-45
2022/08/01 08:28:39;;;;;;;8.20;4.85;;;;;;;;;;5086536;28;20339;-45
2022/08/01 08:31:07;;;;;;;4.93;4.43;;;;;;;;;;5081972;28;20242;-47
2022/08/01 08:33:55;;;;;;;9.18;5.13;;;;;;;;;;5069976;28;20226;-45
2022/08/01 08:36:22;;;;;;;9.05;5.80;;;;;;;;;;5081482;28;20227;-45
2022/08/01 08:39:00;;;;;;;9.35;5.38;;;;;;;;;;5080757;27;20254;-47
2022/08/01 08:41:30;;;;;;;6.15;4.75;;;;;;;;;;5079293;28;20227;-47
2022/08/01 08:44:05;;;;;;;7.65;5.30;;;;;;;;;;5081310;28;20231;-48
2022/08/01 08:46:47;;;;;;;10.18;5.00;;;;;;;;;;5081011;28;20484;-45
2022/08/01 08:49:20;;;;;;;8.25;5.32;;;;;;;;;;5092862;28;20226;-46
2022/08/01 08:51:49;;;;;;;7.20;4.82;;;;;;;;;;5096654;28;20201;-46
2022/08/01 08:54:20;;;;;;;9.68;4.90;;;;;;;;;;5096446;28;20198;-48
2022/08/01 08:56:54;;;;;;;9.07;4.93;;;;;;;;;;5095931;28;20583;-44
2022/08/01 08:59:24;;;;;;;7.53;4.20;;;;;;;;;;5097159;28;20622;-47
2022/08/01 09:01:50;;;;;;;8.80;4.13;;;;;;;;;;5097178;28;20687;-45
2022/08/01 09:04:22;;;;;;;8.50;4.35;;;;;;;;;;5097365;28;20194;-49
2022/08/01 09:06:52;;;;;;;5.05;3.92;;;;;;;;;;5097163;28;20211;-45
2022/08/01 09:09:19;;;;;;;8.10;3.70;;;;;;;;;;5097795;28;20191;-50
2022/08/01 09:11:46;;;;;;;4.68;3.40;;;;;;;;;;5093893;28;20202;-45
2022/08/01 09:14:26;;;;;;;5.47;3.65;;;;;;;;;;5071799;28;20223;-48
2022/08/01 09:17:01;;;;;;;4.90;3.85;;;;;;;;;;5075709;28;20704;-48
2022/08/01 09:19:43;;;;;;;4.00;3.45;;;;;;;;;;5075614;28;20218;-48
2022/08/01 09:22:21;;;;;;;4.60;3.08;;;;;;;;;;5063435;28;20242;-48
2022/08/01 09:25:09;;;;;;;5.35;3.33;;;;;;;;;;5068378;28;20227;-50
2022/08/01 09:27:38;;;;;;;3.92;3.22;;;;;;;;;;5073720;28;20219;-49
2022/08/01 09:30:16;;;;;;;4.20;3.42;;;;;;;;;;5078888;28;20230;-46
2022/08/01 09:33:07;;;;;;;3.78;3.08;;;;;;;;;;5075846;28;20507;-45
2022/08/01 09:35:55;;;;;;;3.50;3.17;;;;;;;;;;5074711;28;20665;-46
2022/08/01 09:38:24;;;;;;;5.50;3.03;;;;;;;;;;5074708;28;20230;-46
2022/08/01 09:40:55;;;;;;;6.18;3.08;;;;;;;;;;5074513;28;20255;-47
2022/08/01 09:43:26;;;;;;;3.42;3.00;;;;;;;;;;5078786;28;20215;-45
2022/08/01 09:45:57;;;;;;;3.40;2.65;;;;;;;;;;5083401;28;20219;-43
2022/08/01 09:48:24;;;;;;;4.00;2.80;;;;;;;;;;5074128;28;20284;-44
2022/08/01 09:50:57;;;;;;;7.38;2.88;;;;;;;;;;5074820;28;20294;-43
2022/08/01 09:53:47;;;;;;;3.33;2.42;;;;;;;;;;5074512;28;20243;-42
2022/08/01 09:56:21;;;;;;;4.40;2.80;;;;;;;;;;5088637;28;20256;-43
2022/08/01 09:58:58;;;;;;;7.80;2.72;;;;;;;;;;5081766;28;20223;-42
2022/08/01 10:01:47;;;;;;;3.10;2.80;;;;;;;;;;5081689;28;20661;-43
2022/08/01 10:04:16;;;;;;;3.28;2.78;;;;;;;;;;5072275;28;20199;-42
2022/08/01 10:06:52;;;;;;;6.20;3.03;;;;;;;;;;5073488;28;20211;-42
2022/08/01 10:09:36;;;;;;;2.78;2.58;;;;;;;;;;5075755;28;20203;-42
2022/08/01 10:12:08;;;;;;;6.65;2.90;;;;;;;;;;5075918;28;20677;-42
2022/08/01 10:14:46;;;;;;;5.47;2.83;;;;;;;;;;5075996;28;20199;-43
2022/08/01 10:17:19;;;;;;;4.38;2.97;;;;;;;;;;5075861;28;20210;-42
2022/08/01 10:19:50;;;;;;;4.00;2.80;;;;;;;;;;5075473;28;20210;-43
2022/08/01 10:22:18;;;;;;;5.90;3.00;;;;;;;;;;5074726;28;20230;-42
2022/08/01 10:24:47;;;;;;;6.55;2.70;;;;;;;;;;5075646;28;20200;-43
2022/08/01 10:27:16;;;;;;;7.78;2.60;;;;;;;;;;5075475;28;20195;-42
2022/08/01 10:30:05;;;;;;;2.70;2.35;;;;;;;;;;5075529;28;20271;-43
2022/08/01 10:32:47;;;;;;;3.20;2.90;;;;;;;;;;5075358;28;20277;-43
2022/08/01 10:35:18;;;;;;;3.25;2.63;;;;;;;;;;5075409;28;20211;-43
2022/08/01 10:38:06;;;;;;;7.68;3.08;;;;;;;;;;5075135;28;20649;-43
2022/08/01 10:40:41;;;;;;;5.95;2.60;;;;;;;;;;5074988;28;20727;-43
2022/08/01 10:43:12;;;;;;;2.58;2.33;;;;;;;;;;5075682;28;20242;-43
2022/08/01 10:45:49;;;;;;;4.93;2.55;;;;;;;;;;5075769;28;20199;-45
2022/08/01 10:48:20;;;;;;;5.55;2.33;;;;;;;;;;5074915;28;20241;-44
2022/08/01 10:50:52;;;;;;;2.75;1.90;;;;;;;;;;5075157;28;20263;-44
2022/08/01 10:53:21;;;;;;;3.88;2.55;;;;;;;;;;5074338;28;20207;-43
2022/08/01 10:56:05;;;;;;;2.90;1.80;;;;;;;;;;5075245;28;20199;-47
2022/08/01 10:58:40;;;;;;;8.90;2.00;;;;;;;;;;5075230;28;20191;-42
2022/08/01 11:01:33;;;;;;;4.22;1.67;;;;;;;;;;5075069;28;20288;-43
2022/08/01 11:04:14;;;;;;;2.88;2.30;;;;;;;;;;5072521;28;20665;-44
2022/08/01 11:06:51;;;;;;;7.15;2.03;;;;;;;;;;5075190;28;20508;-42
2022/08/01 11:09:24;;;;;;;2.65;2.00;;;;;;;;;;5073870;28;20633;-42
2022/08/01 11:12:12;;;;;;;4.18;2.30;;;;;;;;;;5074943;28;20541;-44
2022/08/01 11:14:59;;;;;;;3.30;2.15;;;;;;;;;;5075053;28;20203;-43
2022/08/01 11:17:49;;;;;;;4.45;1.75;;;;;;;;;;5074848;28;20207;-43
2022/08/01 11:20:35;;;;;;;4.93;1.77;;;;;;;;;;5074698;28;20191;-43
2022/08/01 11:23:10;;;;;;;3.15;1.88;;;;;;;;;;5075130;28;20223;-42
2022/08/01 11:25:38;;;;;;;2.63;2.28;;;;;;;;;;5074936;28;20227;-42
2022/08/01 11:28:26;;;;;;;3.35;2.03;;;;;;;;;;5074416;28;20630;-42
2022/08/01 11:31:07;;;;;;;2.72;1.90;;;;;;;;;;5074577;28;20210;-42
2022/08/01 11:33:40;;;;;;;2.90;1.63;;;;;;;;;;5074484;28;20227;-42
2022/08/01 11:36:09;;;;;;;1.77;1.65;;;;;;;;;;5074855;28;20211;-43
2022/08/01 11:38:37;;;;;;;3.13;1.13;;;;;;;;;;5074453;28;20627;-43
2022/08/01 11:41:14;;;;;;;1.75;1.63;;;;;;;;;;5074547;28;20208;-42
2022/08/01 11:44:00;;;;;;;2.15;1.70;;;;;;;;;;5074987;28;20187;-42
2022/08/01 11:46:55;;;;;;;2.40;1.75;;;;;;;;;;5074496;28;20199;-43
2022/08/01 11:49:24;;;;;;;2.70;1.70;;;;;;;;;;5074364;28;20237;-43
2022/08/01 11:52:15;;;;;;;1.90;1.77;;;;;;;;;;5076646;28;20192;-43
2022/08/01 11:54:47;;;;;;;3.92;1.95;;;;;;;;;;5078319;28;20199;-43
2022/08/01 11:57:37;;;;;;;2.13;1.90;;;;;;;;;;5078696;28;20187;-43
2022/08/01 12:00:31;;;;;;;3.30;1.70;;;;;;;;;;5078438;28;20234;-44
2022/08/01 12:03:03;;;;;;;3.38;1.90;;;;;;;;;;5076716;28;20227;-44
2022/08/01 12:05:33;;;;;;;5.47;1.60;;;;;;;;;;5078293;28;20208;-43
2022/08/01 12:08:01;;;;;;;4.50;1.85;;;;;;;;;;5078093;28;20221;-43
2022/08/01 12:10:36;;;;;;;3.35;1.88;;;;;;;;;;5078387;28;20272;-45
2022/08/01 12:13:17;;;;;;;4.50;1.80;;;;;;;;;;5078145;28;20215;-44
2022/08/01 12:15:45;;;;;;;2.58;1.70;;;;;;;;;;5078086;28;20207;-45
2022/08/01 12:18:13;;;;;;;3.53;1.75;;;;;;;;;;5077987;28;20199;-44
2022/08/01 12:20:43;;;;;;;3.40;2.40;;;;;;;;;;5077949;28;20214;-44
2022/08/01 12:23:22;;;;;;;4.43;1.77;;;;;;;;;;5077637;28;20242;-44
2022/08/01 12:25:53;;;;;;;4.15;1.52;;;;;;;;;;5078184;28;20204;-46
2022/08/01 12:28:20;;;;;;;3.47;1.88;;;;;;;;;;5077840;28;20287;-42
2022/08/01 12:30:48;;;;;;;2.38;1.80;;;;;;;;;;5077800;28;20225;-43
2022/08/01 12:33:21;;;;;;;2.85;1.90;;;;;;;;;;5077736;28;20212;-42
2022/08/01 12:35:48;;;;;;;2.35;1.80;;;;;;;;;;5075615;28;20202;-44
2022/08/01 12:38:22;;;;;;;4.45;1.92;;;;;;;;;;5075807;28;20207;-45
2022/08/01 12:40:49;;;;;;;3.42;2.05;;;;;;;;;;5083951;28;20196;-45
2022/08/01 12:43:20;;;;;;;2.35;1.80;;;;;;;;;;5060120;28;20950;-45
2022/08/01 12:45:57;;;;;;;3.13;2.00;;;;;;;;;;5080178;28;20673;-45
2022/08/01 12:48:24;;;;;;;4.18;1.88;;;;;;;;;;5076258;28;20236;-45
2022/08/01 12:50:52;;;;;;;3.55;2.05;;;;;;;;;;5075829;28;20246;-46
2022/08/01 12:53:20;;;;;;;8.25;1.92;;;;;;;;;;5084781;28;20218;-47
2022/08/01 12:55:53;;;;;;;3.90;1.98;;;;;;;;;;5084252;28;20530;-45
2022/08/01 12:58:33;;;;;;;2.75;1.85;;;;;;;;;;5079590;28;20227;-45
2022/08/01 13:01:08;;;;;;;3.92;1.65;;;;;;;;;;5076733;28;20691;-47
2022/08/01 13:03:36;;;;;;;2.85;1.80;;;;;;;;;;5074538;28;20261;-45
2022/08/01 13:06:14;;;;;;;4.13;1.90;;;;;;;;;;5076266;28;20576;-43
2022/08/01 13:08:42;;;;;;;5.88;1.58;;;;;;;;;;5076353;28;20231;-44
2022/08/01 13:11:14;;;;;;;3.50;1.55;;;;;;;;;;5075966;28;20548;-45
2022/08/01 13:13:49;;;;;;;6.43;1.70;;;;;;;;;;5076171;27;20231;-44
2022/08/01 13:16:19;;;;;;;1.67;1.45;;;;;;;;;;5076140;28;20280;-45
2022/08/01 13:19:06;;;;;;;4.53;1.60;;;;;;;;;;5074968;28;20239;-45
2022/08/01 13:21:34;;;;;;;3.47;1.35;;;;;;;;;;5075649;28;20223;-45
2022/08/01 13:24:28;;;;;;;3.65;1.63;;;;;;;;;;5075553;28;20673;-44
2022/08/01 13:27:00;;;;;;;2.30;1.42;;;;;;;;;;5094990;28;20218;-46
2022/08/01 13:29:31;;;;;;;4.78;1.65;;;;;;;;;;5095642;28;20291;-45
2022/08/01 13:32:12;;;;;;;5.45;1.65;;;;;;;;;;5096199;28;20241;-47
2022/08/01 13:35:21;;;;;;;4.88;1.65;;;;;;;;;;5084429;28;20527;-49
2022/08/01 13:37:49;;;;;;;3.65;1.80;;;;;;;;;;5083202;28;20211;-45
2022/08/01 13:40:25;;;;;;;5.53;1.67;;;;;;;;;;5089622;28;20237;-47
2022/08/01 13:42:54;;;;;;;5.40;1.40;;;;;;;;;;5085837;28;20234;-46
2022/08/01 13:45:23;;;;;;;2.78;1.65;;;;;;;;;;5076623;28;20616;-46
2022/08/01 13:47:52;;;;;;;4.35;1.40;;;;;;;;;;5075163;28;20562;-46
2022/08/01 13:50:39;;;;;;;1.77;1.40;;;;;;;;;;5074590;28;20227;-45
2022/08/01 13:53:06;;;;;;;2.60;1.50;;;;;;;;;;5074492;28;20280;-45
2022/08/01 13:55:33;;;;;;;5.10;1.70;;;;;;;;;;5074833;28;20555;-47
2022/08/01 13:58:02;;;;;;;2.90;1.60;;;;;;;;;;5074740;28;20235;-45
2022/08/01 14:00:29;;;;;;;2.20;1.40;;;;;;;;;;5074102;28;20223;-46
2022/08/01 14:02:56;;;;;;;2.20;1.45;;;;;;;;;;5074972;28;20308;-45
2022/08/01 14:05:23;;;;;;;2.75;1.60;;;;;;;;;;5074927;28;20231;-45
2022/08/01 14:07:50;;;;;;;5.88;1.70;;;;;;;;;;5075435;28;20227;-46
2022/08/01 14:10:23;;;;;;;2.78;1.65;;;;;;;;;;5064313;28;20673;-45
2022/08/01 14:12:50;;;;;;;4.28;1.48;;;;;;;;;;5073512;28;20214;-45
2022/08/01 14:15:18;;;;;;;3.50;1.50;;;;;;;;;;5085145;28;20211;-45
2022/08/01 14:18:06;;;;;;;3.80;1.30;;;;;;;;;;5089487;28;20305;-45
2022/08/01 14:20:36;;;;;;;2.10;1.40;;;;;;;;;;5083576;28;20541;-46
2022/08/01 14:23:04;;;;;;;2.40;1.52;;;;;;;;;;5084911;28;20231;-45
2022/08/01 14:25:40;;;;;;;5.32;1.42;;;;;;;;;;5083853;28;20218;-47
2022/08/01 14:28:27;;;;;;;3.40;1.65;;;;;;;;;;5083081;28;20345;-46
2022/08/01 14:30:58;;;;;;;2.45;1.45;;;;;;;;;;5085891;28;20317;-49
2022/08/01 14:33:26;;;;;;;3.33;1.30;;;;;;;;;;5094924;28;20233;-49
2022/08/01 14:35:53;;;;;;;1.55;1.30;;;;;;;;;;5083928;28;20229;-45
2022/08/01 14:38:41;;;;;;;3.78;1.20;;;;;;;;;;5081676;28;20293;-46
2022/08/01 14:41:13;;;;;;;1.95;1.60;;;;;;;;;;5083807;28;20612;-44
2022/08/01 14:43:39;;;;;;;2.30;1.42;;;;;;;;;;5082710;28;20226;-46
2022/08/01 14:46:09;;;;;;;5.28;1.38;;;;;;;;;;5084075;28;20221;-47
2022/08/01 14:48:36;;;;;;;3.25;1.50;;;;;;;;;;5083387;28;20230;-50
2022/08/01 14:51:04;;;;;;;10.80;1.48;;;;;;;;;;5083190;28;20222;-45
2022/08/01 14:53:34;;;;;;;4.03;1.45;;;;;;;;;;5085723;28;20219;-49
2022/08/01 14:56:05;;;;;;;5.40;1.52;;;;;;;;;;5083042;28;20218;-47
2022/08/01 14:58:33;;;;;;;2.55;1.05;;;;;;;;;;5074264;28;20231;-49
2022/08/01 15:01:00;;;;;;;4.13;1.60;;;;;;;;;;5075155;28;20242;-44
2022/08/01 15:03:27;;;;;;;3.80;1.42;;;;;;;;;;5082149;28;20203;-46
2022/08/01 15:05:54;;;;;;;1.45;1.13;;;;;;;;;;5074989;28;20204;-46
2022/08/01 15:08:21;;;;;;;4.47;1.20;;;;;;;;;;5074698;28;20626;-44